createdAt,value
2018-07-23T00:02:08.514Z,98921.39
2018-07-23T00:04:38.632Z,98926.86
2018-07-23T00:07:09.691Z,98928.49
2018-07-23T00:09:40.068Z,98935.56
2018-07-23T00:12:10.064Z,98931.72
2018-07-23T00:14:40.272Z,98933.91
2018-07-23T00:17:10.941Z,98937.72
2018-07-23T00:19:41.408Z,98935.80
2018-07-23T00:22:11.961Z,98933.06
2018-07-23T00:24:42.333Z,98933.00
2018-07-23T00:27:12.680Z,98939.52
2018-07-23T00:29:42.805Z,98930.20
2018-07-23T00:32:13.715Z,98924.44
2018-07-23T00:34:44.268Z,98927.43
2018-07-23T00:37:14.991Z,98920.59
2018-07-23T00:39:45.540Z,98907.95
2018-07-23T00:42:15.754Z,98919.70
2018-07-23T00:44:46.112Z,98906.02
2018-07-23T00:47:16.458Z,98913.13
2018-07-23T00:49:46.703Z,98916.71
2018-07-23T00:52:16.812Z,98919.45
2018-07-23T00:54:47.146Z,98918.08
2018-07-23T00:57:17.419Z,98925.19
2018-07-23T00:59:47.514Z,98935.05
2018-07-23T01:02:18.595Z,98942.98
2018-07-23T01:04:48.759Z,98943.53
2018-07-23T01:07:19.091Z,98939.42
2018-07-23T01:09:49.219Z,98949.56
2018-07-23T01:12:35.596Z,98949.56
2018-07-23T01:15:06.048Z,98941.96
2018-07-23T01:17:37.193Z,98950.17
2018-07-23T01:20:07.279Z,98954.02
2018-07-23T01:22:37.505Z,98951.34
2018-07-23T01:25:07.722Z,98951.84
2018-07-23T01:27:38.022Z,98950.47
2018-07-23T01:30:08.577Z,98948.55
2018-07-23T01:32:38.728Z,98948.25
2018-07-23T01:35:08.883Z,98950.44
2018-07-23T01:37:39.837Z,98943.59
2018-07-23T01:40:10.209Z,98947.14
2018-07-23T01:42:40.656Z,98946.00
2018-07-23T01:45:10.594Z,98943.04
2018-07-23T01:47:41.318Z,98940.86
2018-07-23T01:50:12.139Z,98943.07
2018-07-23T01:52:42.477Z,98940.66
2018-07-23T01:55:13.083Z,98941.20
2018-07-23T01:57:43.327Z,98936.58
2018-07-23T02:00:13.553Z,98936.35
2018-07-23T02:02:43.841Z,98933.61
2018-07-23T02:05:13.961Z,98931.17
2018-07-23T02:07:44.015Z,98931.23
2018-07-23T02:10:13.997Z,98931.23
2018-07-23T02:12:44.219Z,98930.48
2018-07-23T02:15:15.452Z,98925.84
2018-07-23T02:17:45.588Z,98928.88
2018-07-23T02:20:15.200Z,98927.27
2018-07-23T02:22:45.352Z,98935.77
2018-07-23T02:25:15.690Z,98929.81
2018-07-23T02:27:45.877Z,98936.13
2018-07-23T02:30:15.986Z,98934.76
2018-07-23T02:32:46.635Z,98925.50
2018-07-23T02:35:16.993Z,98925.53
2018-07-23T02:37:47.284Z,98937.91
2018-07-23T02:40:17.472Z,98931.94
2018-07-23T02:42:47.672Z,98924.63
2018-07-23T02:45:17.791Z,98933.45
2018-07-23T02:47:48.602Z,98932.38
2018-07-23T02:50:19.512Z,98931.06
2018-07-23T02:55:49.352Z,98923.28
2018-07-23T02:58:20.219Z,98917.90
2018-07-23T03:00:50.569Z,98922.61
2018-07-23T03:03:20.593Z,98907.36
2018-07-23T03:05:51.030Z,98918.59
2018-07-23T03:08:21.304Z,98916.17
2018-07-23T03:10:51.576Z,98921.44
2018-07-23T03:13:21.712Z,98920.91
2018-07-23T03:15:52.004Z,98926.14
2018-07-23T03:18:22.554Z,98930.24
2018-07-23T03:20:52.909Z,98931.63
2018-07-23T03:23:23.019Z,98932.23
2018-07-23T03:25:53.213Z,98927.89
2018-07-23T03:28:23.514Z,98933.97
2018-07-23T03:30:53.780Z,98929.34
2018-07-23T03:33:24.132Z,98932.47
2018-07-23T03:35:54.442Z,98931.15
2018-07-23T03:38:24.655Z,98926.84
2018-07-23T03:40:54.978Z,98941.34
2018-07-23T03:43:25.154Z,98937.00
2018-07-23T03:45:55.320Z,98940.02
2018-07-23T03:48:25.645Z,98937.02
2018-07-23T03:50:56.216Z,98934.02
2018-07-23T03:53:26.259Z,98936.20
2018-07-23T03:55:56.784Z,98940.30
2018-07-23T03:58:27.072Z,98940.57
2018-07-23T04:00:57.818Z,98947.69
2018-07-23T04:03:27.934Z,98961.06
2018-07-23T04:05:58.145Z,98965.16
2018-07-23T04:08:28.857Z,98970.34
2018-07-23T04:10:58.956Z,98969.75
2018-07-23T04:13:29.092Z,98975.16
2018-07-23T04:15:59.732Z,98976.80
2018-07-23T04:18:30.106Z,98983.89
2018-07-23T04:21:00.642Z,98980.58
2018-07-23T04:23:30.804Z,98981.71
2018-07-23T04:26:01.039Z,98978.71
2018-07-23T04:28:31.092Z,98972.16
2018-07-23T04:31:01.344Z,98975.48
2018-07-23T04:33:31.558Z,98974.13
2018-07-23T04:36:01.923Z,98972.00
2018-07-23T04:38:33.006Z,98970.36
2018-07-23T04:41:03.342Z,98969.31
2018-07-23T04:43:33.813Z,98976.70
2018-07-23T04:46:04.000Z,98987.36
2018-07-23T04:48:34.623Z,98994.14
2018-07-23T04:51:05.196Z,98995.51
2018-07-23T04:53:35.405Z,98999.04
2018-07-23T04:56:05.988Z,98990.84
2018-07-23T04:58:37.087Z,98992.44
2018-07-23T05:01:07.834Z,98992.76
2018-07-23T05:03:38.127Z,98979.91
2018-07-23T05:06:08.401Z,98979.09
2018-07-23T05:08:39.151Z,98984.30
2018-07-23T05:11:09.444Z,98984.56
2018-07-23T05:13:39.612Z,98987.58
2018-07-23T05:16:10.650Z,98994.41
2018-07-23T05:18:41.218Z,99000.14
2018-07-23T05:21:11.317Z,99009.16
2018-07-23T05:23:41.494Z,99000.14
2018-07-23T05:26:11.725Z,98995.75
2018-07-23T05:28:42.173Z,99008.84
2018-07-23T05:31:12.582Z,99000.91
2018-07-23T05:33:42.776Z,98994.34
2018-07-23T05:36:12.914Z,98994.84
2018-07-23T05:38:43.090Z,98995.11
2018-07-23T05:41:13.763Z,98991.27
2018-07-23T05:43:43.904Z,98983.31
2018-07-23T05:46:14.092Z,98986.31
2018-07-23T05:48:44.197Z,98985.76
2018-07-23T05:51:14.808Z,98990.39
2018-07-23T05:53:45.846Z,98998.22
2018-07-23T05:56:16.058Z,99001.22
2018-07-23T05:58:47.189Z,98998.47
2018-07-23T06:01:18.362Z,99006.09
2018-07-23T06:03:48.563Z,99003.36
2018-07-23T06:06:18.879Z,99002.80
2018-07-23T06:08:49.402Z,99008.03
2018-07-23T06:11:19.612Z,99006.67
2018-07-23T06:13:49.855Z,99006.41
2018-07-23T06:16:20.317Z,99011.61
2018-07-23T06:18:50.863Z,99012.42
2018-07-23T06:21:21.247Z,99021.72
2018-07-23T06:23:51.500Z,99014.39
2018-07-23T06:26:21.913Z,99018.48
2018-07-23T06:28:52.396Z,99028.05
2018-07-23T06:31:22.523Z,99023.41
2018-07-23T06:33:53.184Z,99029.97
2018-07-23T06:36:24.105Z,99030.57
2018-07-23T06:38:54.361Z,99030.91
2018-07-23T06:41:24.658Z,99033.37
2018-07-23T06:43:55.541Z,99047.90
2018-07-23T06:46:25.815Z,99042.44
2018-07-23T06:48:56.454Z,99036.39
2018-07-23T06:51:26.700Z,99041.85
2018-07-23T06:53:56.887Z,99045.67
2018-07-23T06:56:27.305Z,99050.85
2018-07-23T06:58:57.426Z,99048.89
2018-07-23T07:01:27.662Z,99050.20
2018-07-23T07:03:57.952Z,99060.81
2018-07-23T07:06:28.397Z,99065.67
2018-07-23T07:08:58.943Z,99070.05
2018-07-23T07:11:29.172Z,99065.66
2018-07-23T07:13:59.390Z,99072.74
2018-07-23T07:16:29.804Z,99072.14
2018-07-23T07:18:59.887Z,99079.47
2018-07-23T07:21:30.177Z,99076.68
2018-07-23T07:24:00.469Z,99077.18
2018-07-23T07:26:30.807Z,99089.47
2018-07-23T07:29:01.207Z,99089.69
2018-07-23T07:31:31.319Z,99090.19
2018-07-23T07:34:01.449Z,99089.35
2018-07-23T07:36:31.648Z,99081.43
2018-07-23T07:39:01.913Z,99087.17
2018-07-23T07:41:32.087Z,99089.62
2018-07-23T07:44:02.395Z,99091.22
2018-07-23T07:46:32.851Z,99092.09
2018-07-23T07:49:03.648Z,99095.09
2018-07-23T07:51:33.893Z,99098.92
2018-07-23T07:54:04.221Z,99103.30
2018-07-23T07:56:34.655Z,99101.92
2018-07-23T07:59:05.222Z,99097.23
2018-07-23T08:01:35.814Z,99092.91
2018-07-23T08:04:05.995Z,99098.39
2018-07-23T08:06:36.272Z,99110.70
2018-07-23T08:09:08.333Z,99112.59
2018-07-23T08:11:39.318Z,99111.50
2018-07-23T08:14:09.645Z,99115.84
2018-07-23T08:16:40.734Z,99111.73
2018-07-23T08:19:10.902Z,99118.84
2018-07-23T08:21:41.145Z,99112.86
2018-07-23T08:24:11.825Z,99112.86
2018-07-23T08:26:48.738Z,99108.18
2018-07-23T08:29:19.128Z,99103.30
2018-07-23T08:31:49.530Z,99105.16
2018-07-23T08:34:19.611Z,99103.24
2018-07-23T08:36:50.060Z,99104.88
2018-07-23T08:39:20.422Z,99110.03
2018-07-23T08:41:50.549Z,99117.41
2018-07-23T08:44:21.104Z,99106.45
2018-07-23T08:46:51.518Z,99097.39
2018-07-23T08:49:21.734Z,99105.86
2018-07-23T08:51:52.297Z,99106.91
2018-07-23T08:54:22.474Z,99101.42
2018-07-23T08:56:52.894Z,99096.16
2018-07-23T08:59:23.372Z,99099.11
2018-07-23T09:01:53.770Z,99101.25
2018-07-23T09:04:23.932Z,99102.56
2018-07-23T09:06:54.493Z,99112.11
2018-07-23T09:09:24.643Z,99111.78
2018-07-23T09:11:55.241Z,99106.20
2018-07-23T09:14:25.390Z,99116.57
2018-07-23T09:16:55.587Z,99110.49
2018-07-23T09:19:26.424Z,99109.36
2018-07-23T09:21:56.757Z,99110.72
2018-07-23T09:24:26.943Z,99110.72
2018-07-23T09:26:57.344Z,99106.06
2018-07-23T09:29:27.479Z,99103.86
2018-07-23T09:31:57.676Z,99102.17
2018-07-23T09:34:27.932Z,99113.91
2018-07-23T09:36:58.120Z,99114.15
2018-07-23T09:39:28.186Z,99108.94
2018-07-23T09:41:58.370Z,99107.52
2018-07-23T09:44:28.769Z,99101.75
2018-07-23T09:46:59.250Z,99110.20
2018-07-23T09:49:29.505Z,99100.83
2018-07-23T09:51:59.675Z,99105.14
2018-07-23T09:54:30.052Z,99106.98
2018-07-23T09:57:01.270Z,99104.45
2018-07-23T09:59:31.640Z,99101.08
2018-07-23T10:02:01.863Z,99103.41
2018-07-23T10:04:32.503Z,99109.84
2018-07-23T10:07:03.207Z,99108.87
2018-07-23T10:09:33.603Z,99095.94
2018-07-23T10:12:03.883Z,99096.38
2018-07-23T10:14:34.269Z,99095.14
2018-07-23T10:17:04.664Z,99099.09
2018-07-23T10:19:34.932Z,99095.44
2018-07-23T10:22:05.607Z,99085.98
2018-07-23T10:24:35.976Z,99088.63
2018-07-23T10:27:06.337Z,99091.53
2018-07-23T10:29:36.977Z,99090.06
2018-07-23T10:32:07.484Z,99083.89
2018-07-23T10:34:37.334Z,99085.70
2018-07-23T10:37:07.481Z,99080.38
2018-07-23T10:39:37.604Z,99077.83
2018-07-23T10:42:09.090Z,99078.51
2018-07-23T10:44:39.285Z,99074.02
2018-07-23T10:47:09.412Z,99072.77
2018-07-23T10:49:39.672Z,99075.92
2018-07-23T10:52:10.214Z,99086.45
2018-07-23T10:54:40.560Z,99079.16
2018-07-23T10:57:10.973Z,99073.48
2018-07-23T10:59:41.120Z,99080.44
2018-07-23T11:02:12.042Z,99075.02
2018-07-23T11:04:42.047Z,99068.74
2018-07-23T11:07:12.294Z,99064.94
2018-07-23T11:09:42.559Z,99071.27
2018-07-23T11:12:12.803Z,99067.16
2018-07-23T11:14:43.156Z,99059.91
2018-07-23T11:17:13.299Z,99065.63
2018-07-23T11:19:43.599Z,99054.31
2018-07-23T11:22:13.765Z,99056.11
2018-07-23T11:24:45.622Z,99055.66
2018-07-23T11:27:14.590Z,99065.08
2018-07-23T11:29:45.097Z,99048.36
2018-07-23T11:32:15.327Z,99043.18
2018-07-23T11:34:45.635Z,99040.53
2018-07-23T11:37:15.976Z,99038.40
2018-07-23T11:39:46.077Z,99035.45
2018-07-23T11:42:16.356Z,99032.52
2018-07-23T11:44:46.626Z,99038.55
2018-07-23T11:47:17.193Z,99027.55
2018-07-23T11:49:48.101Z,99029.91
2018-07-23T11:52:18.281Z,99020.99
2018-07-23T11:54:48.344Z,99012.31
2018-07-23T11:57:19.447Z,99022.40
2018-07-23T11:59:49.547Z,99022.74
2018-07-23T12:02:20.024Z,99022.62
2018-07-23T12:04:50.192Z,99023.86
2018-07-23T12:07:20.483Z,99027.61
2018-07-23T12:09:51.010Z,99021.20
2018-07-23T12:12:21.118Z,99018.23
2018-07-23T12:14:51.562Z,99019.69
2018-07-23T12:17:21.819Z,99011.98
2018-07-23T12:19:52.083Z,99012.09
2018-07-23T12:22:22.204Z,99013.38
2018-07-23T12:24:52.351Z,99005.67
2018-07-23T12:27:22.411Z,99001.74
2018-07-23T12:29:52.475Z,99005.54
2018-07-23T12:32:23.179Z,98997.47
2018-07-23T12:34:54.231Z,98994.73
2018-07-23T12:37:24.416Z,98987.80
2018-07-23T12:39:54.802Z,98991.59
2018-07-23T12:42:25.016Z,98988.91
2018-07-23T12:44:55.227Z,98995.83
2018-07-23T12:47:25.378Z,98989.92
2018-07-23T12:49:55.827Z,98991.17
2018-07-23T12:52:26.002Z,98983.88
2018-07-23T12:54:56.339Z,98984.55
2018-07-23T12:57:26.474Z,98987.98
2018-07-23T12:59:56.763Z,98990.00
2018-07-23T13:02:28.119Z,98991.81
2018-07-23T13:04:58.480Z,98986.12
2018-07-23T13:07:28.773Z,98982.15
2018-07-23T13:09:59.050Z,98981.76
2018-07-23T13:12:29.596Z,98982.20
2018-07-23T13:15:00.131Z,98971.06
2018-07-23T13:17:30.388Z,98966.07
2018-07-23T13:20:00.590Z,98967.98
2018-07-23T13:22:30.591Z,98962.75
2018-07-23T13:25:01.196Z,98959.95
2018-07-23T13:27:31.378Z,98961.42
2018-07-23T13:30:01.588Z,98967.14
2018-07-23T13:32:31.644Z,98964.30
2018-07-23T13:35:01.476Z,98961.03
2018-07-23T13:37:32.078Z,98957.98
2018-07-23T13:40:02.378Z,98956.68
2018-07-23T13:42:32.528Z,98950.09
2018-07-23T13:45:02.790Z,98941.84
2018-07-23T13:47:33.272Z,98951.41
2018-07-23T13:50:03.475Z,98940.96
2018-07-23T13:52:33.708Z,98937.03
2018-07-23T13:55:04.070Z,98942.58
2018-07-23T13:57:34.106Z,98934.25
2018-07-23T14:00:04.258Z,98935.14
2018-07-23T14:02:34.442Z,98936.02
2018-07-23T14:05:04.922Z,98932.75
2018-07-23T14:07:35.253Z,98941.73
2018-07-23T14:10:05.155Z,98921.14
2018-07-23T14:12:35.712Z,98932.89
2018-07-23T14:15:07.216Z,98922.22
2018-07-23T14:17:37.544Z,98928.23
2018-07-23T14:20:08.378Z,98920.91
2018-07-23T14:22:38.668Z,98912.22
2018-07-23T14:25:08.895Z,98902.50
2018-07-23T14:27:39.059Z,98911.48
2018-07-23T14:30:09.288Z,98906.59
2018-07-23T14:32:40.428Z,98895.35
2018-07-23T14:35:10.597Z,98892.65
2018-07-23T14:37:40.714Z,98888.33
2018-07-23T14:40:10.995Z,98893.36
2018-07-23T14:42:41.203Z,98895.08
2018-07-23T14:45:11.689Z,98899.89
2018-07-23T14:47:42.270Z,98887.98
2018-07-23T14:50:12.433Z,98887.81
2018-07-23T14:52:42.703Z,98888.34
2018-07-23T14:55:13.044Z,98880.66
2018-07-23T14:57:43.317Z,98875.97
2018-07-23T15:00:13.578Z,98879.03
2018-07-23T15:02:43.626Z,98869.80
2018-07-23T15:05:13.729Z,98872.64
2018-07-23T15:07:43.939Z,98874.48
2018-07-23T15:10:14.087Z,98872.34
2018-07-23T15:12:44.638Z,98874.83
2018-07-23T15:15:14.850Z,98871.14
2018-07-23T15:17:45.261Z,98868.64
2018-07-23T15:20:18.835Z,98865.37
2018-07-23T15:22:49.519Z,98873.45
2018-07-23T15:25:20.036Z,98877.88
2018-07-23T15:27:50.502Z,98880.87
2018-07-23T15:30:20.426Z,98880.94
2018-07-23T15:32:50.637Z,98874.05
2018-07-23T15:35:20.882Z,98880.25
2018-07-23T15:37:52.428Z,98881.56
2018-07-23T15:40:22.738Z,98886.14
2018-07-23T15:42:52.899Z,98880.41
2018-07-23T15:45:23.531Z,98882.48
2018-07-23T15:47:54.005Z,98877.16
2018-07-23T15:50:28.990Z,98880.61
2018-07-23T15:52:59.777Z,98882.84
2018-07-23T15:55:29.919Z,98875.35
2018-07-23T15:58:00.491Z,98879.80
2018-07-23T16:00:30.834Z,98891.42
2018-07-23T16:03:01.180Z,98889.86
2018-07-23T16:05:31.369Z,98889.69
2018-07-23T16:08:01.685Z,98888.30
2018-07-23T16:10:31.938Z,98885.52
2018-07-23T16:13:02.208Z,98897.23
2018-07-23T16:15:32.457Z,98890.89
2018-07-23T16:18:02.815Z,98900.41
2018-07-23T16:20:32.885Z,98900.98
2018-07-23T16:23:02.922Z,98898.20
2018-07-23T16:25:33.201Z,98902.38
2018-07-23T16:28:03.572Z,98903.41
2018-07-23T16:30:35.165Z,98908.00
2018-07-23T16:33:10.353Z,98912.17
2018-07-23T16:35:45.100Z,98907.77
2018-07-23T16:38:15.970Z,98913.01
2018-07-23T16:40:46.465Z,98902.44
2018-07-23T16:43:16.547Z,98921.91
2018-07-23T16:45:46.813Z,98908.58
2018-07-23T16:48:16.852Z,98915.54
2018-07-23T16:50:47.537Z,98918.48
2018-07-23T16:53:17.619Z,98906.72
2018-07-23T16:55:47.665Z,98908.64
2018-07-23T16:58:17.896Z,98912.59
2018-07-23T17:00:48.638Z,98910.39
2018-07-23T17:03:18.885Z,98910.79
2018-07-23T17:05:49.634Z,98913.34
2018-07-23T17:08:19.541Z,98920.89
2018-07-23T17:10:50.077Z,98915.48
2018-07-23T17:13:20.556Z,98915.62
2018-07-23T17:15:50.616Z,98912.66
2018-07-23T17:18:20.705Z,98916.02
2018-07-23T17:20:51.282Z,98915.38
2018-07-23T17:23:21.301Z,98919.10
2018-07-23T17:25:51.419Z,98922.41
2018-07-23T17:28:21.672Z,98923.38
2018-07-23T17:30:52.339Z,98919.73
2018-07-23T17:33:22.780Z,98925.82
2018-07-23T17:35:52.883Z,98925.38
2018-07-23T17:38:24.814Z,98923.34
2018-07-23T17:40:55.077Z,98926.28
2018-07-23T17:43:25.316Z,98921.83
2018-07-23T17:45:55.620Z,98926.84
2018-07-23T17:48:26.066Z,98926.36
2018-07-23T17:50:56.489Z,98927.63
2018-07-23T17:53:27.001Z,98929.47
2018-07-23T17:55:57.294Z,98926.69
2018-07-23T17:58:27.515Z,98926.55
2018-07-23T18:00:58.702Z,98928.77
2018-07-23T18:03:28.784Z,98923.78
2018-07-23T18:05:58.903Z,98924.20
2018-07-23T18:08:29.022Z,98925.83
2018-07-23T18:10:59.666Z,98931.20
2018-07-23T18:13:29.923Z,98931.86
2018-07-23T18:16:00.367Z,98934.25
2018-07-23T18:18:30.382Z,98932.36
2018-07-23T18:21:00.553Z,98930.82
2018-07-23T18:23:31.035Z,98934.22
2018-07-23T18:26:02.170Z,98934.11
2018-07-23T18:28:32.191Z,98938.56
2018-07-23T18:31:03.065Z,98942.42
2018-07-23T18:33:33.327Z,98945.61
2018-07-23T18:36:03.535Z,98953.61
2018-07-23T18:38:34.324Z,98950.33
2018-07-23T18:41:04.571Z,98950.13
2018-07-23T18:43:34.730Z,98955.38
2018-07-23T18:46:05.654Z,98961.77
2018-07-23T18:49:46.532Z,98974.50
2018-07-23T18:52:17.238Z,98971.80
2018-07-23T18:54:48.532Z,98981.52
2018-07-23T18:57:18.499Z,98989.31
2018-07-23T18:59:49.179Z,98999.83
2018-07-23T19:02:20.718Z,99002.27
2018-07-23T19:04:50.933Z,99012.48
2018-07-23T19:07:23.259Z,99017.32
2018-07-23T19:09:55.300Z,99015.03
2018-07-23T19:12:25.546Z,99024.05
2018-07-23T19:14:55.794Z,99029.05
2018-07-23T19:17:27.125Z,99023.18
2018-07-23T19:19:57.735Z,99031.73
2018-07-23T19:22:27.882Z,99032.91
2018-07-23T19:24:57.797Z,99043.52
2018-07-23T19:27:28.049Z,99046.88
2018-07-23T19:29:58.432Z,99045.29
2018-07-23T19:32:28.678Z,99052.57
2018-07-23T19:34:59.648Z,99057.52
2018-07-23T19:37:30.916Z,99056.73
2018-07-23T19:40:01.208Z,99067.24
2018-07-23T19:42:32.025Z,99078.17
2018-07-23T19:45:02.471Z,99074.03
2018-07-23T19:47:33.008Z,99076.69
2018-07-23T19:50:03.896Z,99079.64
2018-07-23T19:52:34.363Z,99085.19
2018-07-23T19:55:05.017Z,99088.98
2018-07-23T19:57:35.534Z,99096.11
2018-07-23T20:00:06.297Z,99095.55
2018-07-23T20:02:36.244Z,99094.16
2018-07-23T20:05:06.741Z,99092.75
2018-07-23T20:07:37.235Z,99098.28
2018-07-23T20:10:07.715Z,99105.40
2018-07-23T20:12:38.067Z,99103.89
2018-07-23T20:15:08.217Z,99101.58
2018-07-23T20:17:38.119Z,99106.29
2018-07-23T20:20:09.202Z,99110.88
2018-07-23T20:22:39.563Z,99109.34
2018-07-23T20:25:12.312Z,99110.59
2018-07-23T20:27:42.930Z,99113.23
2018-07-23T20:30:13.279Z,99111.25
2018-07-23T20:32:44.783Z,99108.92
2018-07-23T20:35:17.275Z,99114.32
2018-07-23T20:37:47.878Z,99116.38
2018-07-23T20:40:18.431Z,99125.47
2018-07-23T20:42:49.008Z,99123.72
2018-07-23T20:45:20.543Z,99123.09
2018-07-23T20:47:50.561Z,99123.77
2018-07-23T20:50:20.805Z,99124.45
2018-07-23T20:52:51.014Z,99124.33
2018-07-23T20:55:21.300Z,99126.70
2018-07-23T20:57:52.074Z,99127.14
2018-07-23T21:00:22.575Z,99128.14
2018-07-23T21:02:53.031Z,99136.26
2018-07-23T21:05:23.496Z,99131.17
2018-07-23T21:07:53.719Z,99133.80
2018-07-23T21:10:24.232Z,99132.84
2018-07-23T21:12:54.469Z,99132.95
2018-07-23T21:15:24.802Z,99136.03
2018-07-23T21:17:55.191Z,99141.41
2018-07-23T21:20:25.411Z,99144.84
2018-07-23T21:22:56.059Z,99147.92
2018-07-23T21:25:26.600Z,99146.65
2018-07-23T21:27:57.547Z,99143.19
2018-07-23T21:30:27.778Z,99131.16
2018-07-23T21:32:58.226Z,99150.02
2018-07-23T21:35:29.168Z,99148.49
2018-07-23T21:37:59.374Z,99147.22
2018-07-23T21:40:29.658Z,99147.89
2018-07-23T21:42:59.939Z,99151.64
2018-07-23T21:45:30.194Z,99155.06
2018-07-23T21:48:00.588Z,99151.03
2018-07-23T21:50:30.917Z,99148.13
2018-07-23T21:53:01.307Z,99154.84
2018-07-23T21:55:31.426Z,99157.14
2018-07-23T21:58:01.652Z,99158.66
2018-07-23T22:00:32.875Z,99158.05
2018-07-23T22:03:03.845Z,99164.30
2018-07-23T22:05:34.062Z,99161.07
2018-07-23T22:08:04.930Z,99163.89
2018-07-23T22:10:35.277Z,99160.11
2018-07-23T22:13:05.384Z,99158.83
2018-07-23T22:15:35.683Z,99168.23
2018-07-23T22:18:06.184Z,99160.52
2018-07-23T22:20:36.315Z,99162.72
2018-07-23T22:23:06.851Z,99159.70
2018-07-23T22:25:37.127Z,99162.22
2018-07-23T22:28:07.505Z,99161.19
2018-07-23T22:30:38.179Z,99166.45
2018-07-23T22:33:08.466Z,99165.63
2018-07-23T22:35:39.398Z,99172.28
2018-07-23T22:38:09.871Z,99166.86
2018-07-23T22:40:40.152Z,99171.91
2018-07-23T22:43:10.193Z,99166.14
2018-07-23T22:45:40.478Z,99168.34
2018-07-23T22:48:10.841Z,99168.34
2018-07-23T22:50:40.984Z,99160.63
2018-07-23T22:53:11.187Z,99164.05
2018-07-23T22:55:41.425Z,99170.94
2018-07-23T22:58:11.585Z,99165.18
2018-07-23T23:00:41.914Z,99172.07
2018-07-23T23:03:12.438Z,99170.19
2018-07-23T23:05:42.936Z,99167.78
2018-07-23T23:08:13.580Z,99173.61
2018-07-23T23:10:43.373Z,99168.76
2018-07-23T23:13:13.561Z,99164.38
2018-07-23T23:15:43.817Z,99163.91
2018-07-23T23:18:14.402Z,99160.66
2018-07-23T23:20:44.738Z,99156.30
2018-07-23T23:23:15.039Z,99154.42
2018-07-23T23:25:45.468Z,99156.95
2018-07-23T23:28:15.801Z,99161.16
2018-07-23T23:30:46.085Z,99158.25
2018-07-23T23:33:16.230Z,99156.40
2018-07-23T23:35:46.365Z,99156.46
2018-07-23T23:38:16.708Z,99160.94
2018-07-23T23:40:46.801Z,99156.80
2018-07-23T23:43:16.992Z,99149.42
2018-07-23T23:45:47.773Z,99153.30
2018-07-23T23:48:17.676Z,99154.67
2018-07-23T23:50:48.410Z,99149.48
2018-07-23T23:53:18.721Z,99154.48
2018-07-23T23:55:48.794Z,99151.27
2018-07-23T23:58:19.252Z,99153.45
